Time;durP1;ratioP1;P1;durP2;ratioP2;P2;SDS_P1;SDS_P2;PMS_P1;PMS_P2;Temp;Humidity;BMP_temperature;BMP_pressure;BME280_temperature;BME280_humidity;BME280_pressure;Samples;Min_cycle;Max_cycle;Signal;HPM_P1;HPM_P2
2023/06/09 00:01:11;;;;;;;4.72;4.38;;;;;;;;;;5055358;28;20874;-80
2023/06/09 00:03:37;;;;;;;4.60;4.30;;;;;;;;;;5073045;28;20440;-79
2023/06/09 00:06:03;;;;;;;5.05;4.65;;;;;;;;;;5056640;28;20413;-79
2023/06/09 00:08:29;;;;;;;4.60;4.30;;;;;;;;;;5063695;28;20386;-80
2023/06/09 00:10:55;;;;;;;4.68;4.38;;;;;;;;;;5070986;28;20405;-79
2023/06/09 00:13:21;;;;;;;5.00;4.60;;;;;;;;;;5071253;28;20411;-79
2023/06/09 00:15:47;;;;;;;4.57;4.28;;;;;;;;;;5069567;28;20381;-80
2023/06/09 00:18:15;;;;;;;4.70;4.30;;;;;;;;;;5068604;28;20390;-80
2023/06/09 00:20:42;;;;;;;4.90;4.50;;;;;;;;;;5067911;28;20471;-80
2023/06/09 00:23:08;;;;;;;5.05;4.75;;;;;;;;;;5073703;28;20371;-80
2023/06/09 00:25:35;;;;;;;5.00;4.70;;;;;;;;;;5072851;28;20380;-79
2023/06/09 00:28:01;;;;;;;5.50;5.00;;;;;;;;;;5073069;28;20745;-79
2023/06/09 00:30:27;;;;;;;4.75;4.35;;;;;;;;;;5036970;28;20389;-79
2023/06/09 00:32:53;;;;;;;4.90;4.50;;;;;;;;;;5064159;28;20391;-79
2023/06/09 00:35:19;;;;;;;5.28;4.88;;;;;;;;;;5072522;28;20464;-80
2023/06/09 00:37:46;;;;;;;5.00;4.60;;;;;;;;;;5073550;28;20729;-80
2023/06/09 00:40:13;;;;;;;5.33;4.93;;;;;;;;;;5073394;28;20879;-80
2023/06/09 00:42:39;;;;;;;4.88;4.47;;;;;;;;;;5073406;28;20376;-80
2023/06/09 00:45:06;;;;;;;5.35;4.95;;;;;;;;;;5073065;28;20372;-80
2023/06/09 00:47:32;;;;;;;5.20;4.90;;;;;;;;;;5073085;28;20403;-79
2023/06/09 00:49:58;;;;;;;5.03;4.68;;;;;;;;;;5073363;28;20379;-79
2023/06/09 00:52:26;;;;;;;4.85;4.55;;;;;;;;;;5073169;28;20375;-80
2023/06/09 00:54:52;;;;;;;5.07;4.78;;;;;;;;;;5072229;28;20489;-80
2023/06/09 00:57:18;;;;;;;5.22;4.93;;;;;;;;;;5073057;28;20429;-79
2023/06/09 00:59:44;;;;;;;5.32;4.85;;;;;;;;;;5072731;28;20429;-79
2023/06/09 01:02:12;;;;;;;5.22;4.93;;;;;;;;;;5073111;28;20437;-79
2023/06/09 01:04:40;;;;;;;5.35;4.95;;;;;;;;;;5058608;28;20869;-79
2023/06/09 01:07:16;;;;;;;5.27;4.97;;;;;;;;;;5072957;28;20446;-79
2023/06/09 01:10:01;;;;;;;5.03;4.70;;;;;;;;;;5072883;28;20472;-80
2023/06/09 01:12:39;;;;;;;5.13;4.83;;;;;;;;;;5072711;28;20766;-80
2023/06/09 01:15:17;;;;;;;5.25;4.85;;;;;;;;;;5072250;28;20394;-80
2023/06/09 01:17:44;;;;;;;5.37;4.97;;;;;;;;;;5072678;28;20475;-80
2023/06/09 01:20:12;;;;;;;5.60;5.20;;;;;;;;;;5072698;28;20384;-79
2023/06/09 01:22:58;;;;;;;5.10;4.80;;;;;;;;;;5072499;28;20433;-79
2023/06/09 01:25:27;;;;;;;5.22;4.82;;;;;;;;;;5072126;28;20384;-79
2023/06/09 01:27:57;;;;;;;5.45;5.13;;;;;;;;;;5072305;28;20371;-79
2023/06/09 01:30:24;;;;;;;5.33;4.93;;;;;;;;;;5072032;28;20372;-80
2023/06/09 01:32:50;;;;;;;5.17;4.83;;;;;;;;;;5072427;28;20376;-80
2023/06/09 01:35:17;;;;;;;5.22;4.85;;;;;;;;;;5071568;28;20465;-80
2023/06/09 01:37:43;;;;;;;5.68;5.28;;;;;;;;;;5072350;28;20940;-79
2023/06/09 01:40:09;;;;;;;5.22;4.82;;;;;;;;;;5072228;28;20472;-80
2023/06/09 01:42:36;;;;;;;5.30;4.90;;;;;;;;;;5072222;28;20773;-79
2023/06/09 01:45:02;;;;;;;5.32;4.97;;;;;;;;;;5071862;28;20745;-79
2023/06/09 01:47:28;;;;;;;5.30;4.90;;;;;;;;;;5071879;28;20403;-79
2023/06/09 01:50:14;;;;;;;5.60;5.20;;;;;;;;;;5072099;28;20467;-79
2023/06/09 01:52:40;;;;;;;5.30;5.00;;;;;;;;;;5071950;28;20368;-79
2023/06/09 01:55:13;;;;;;;5.50;5.10;;;;;;;;;;5071642;28;20394;-79
2023/06/09 01:57:51;;;;;;;5.22;4.93;;;;;;;;;;5071791;28;20780;-79
2023/06/09 02:00:17;;;;;;;5.25;4.95;;;;;;;;;;5071942;28;20398;-79
2023/06/09 02:02:46;;;;;;;5.57;5.18;;;;;;;;;;5071644;28;20380;-79
2023/06/09 02:05:13;;;;;;;5.68;5.28;;;;;;;;;;5071474;28;20873;-80
2023/06/09 02:07:39;;;;;;;5.72;5.32;;;;;;;;;;5071338;28;20415;-79
2023/06/09 02:10:06;;;;;;;5.75;5.35;;;;;;;;;;5071074;28;20400;-79
2023/06/09 02:12:32;;;;;;;5.68;5.28;;;;;;;;;;5071515;28;20380;-79
2023/06/09 02:14:59;;;;;;;5.90;5.50;;;;;;;;;;5071238;28;20380;-79
2023/06/09 02:17:25;;;;;;;5.38;5.07;;;;;;;;;;5071615;28;20382;-79
2023/06/09 02:19:51;;;;;;;6.05;5.60;;;;;;;;;;5053771;28;20394;-79
2023/06/09 02:22:17;;;;;;;5.70;5.40;;;;;;;;;;5071561;28;20936;-80
2023/06/09 02:24:43;;;;;;;5.80;5.40;;;;;;;;;;5070771;28;20406;-79
2023/06/09 02:27:09;;;;;;;6.05;5.65;;;;;;;;;;5071290;28;20452;-79
2023/06/09 02:29:36;;;;;;;5.95;5.55;;;;;;;;;;5069152;28;20375;-79
2023/06/09 02:32:02;;;;;;;5.60;5.20;;;;;;;;;;5071312;28;20379;-79
2023/06/09 02:34:30;;;;;;;6.13;5.70;;;;;;;;;;5071089;28;20386;-79
2023/06/09 02:36:57;;;;;;;5.60;5.20;;;;;;;;;;5070587;28;20400;-79
2023/06/09 02:39:23;;;;;;;5.45;5.07;;;;;;;;;;5071332;28;20773;-79
2023/06/09 02:41:49;;;;;;;5.80;5.40;;;;;;;;;;5071205;28;20385;-79
2023/06/09 02:44:16;;;;;;;5.80;5.40;;;;;;;;;;5070595;28;20410;-79
2023/06/09 02:46:43;;;;;;;6.10;5.60;;;;;;;;;;5071002;28;21120;-79
2023/06/09 02:49:10;;;;;;;5.97;5.57;;;;;;;;;;5071062;28;20404;-79
2023/06/09 02:51:36;;;;;;;5.75;5.35;;;;;;;;;;5071120;28;20375;-79
2023/06/09 02:54:02;;;;;;;6.10;5.70;;;;;;;;;;5070548;28;20387;-79
2023/06/09 02:56:28;;;;;;;5.65;5.25;;;;;;;;;;5071117;28;20379;-79
2023/06/09 02:58:54;;;;;;;6.18;5.78;;;;;;;;;;5070733;28;20930;-79
2023/06/09 03:01:21;;;;;;;6.15;5.75;;;;;;;;;;5051055;28;20378;-79
2023/06/09 03:03:47;;;;;;;6.18;5.78;;;;;;;;;;5063389;28;20399;-79
2023/06/09 03:06:14;;;;;;;6.20;5.80;;;;;;;;;;5060537;28;20430;-81
2023/06/09 03:08:43;;;;;;;6.03;5.63;;;;;;;;;;5058777;28;20918;-80
2023/06/09 03:11:10;;;;;;;5.78;5.38;;;;;;;;;;5065486;28;20380;-79
2023/06/09 03:13:36;;;;;;;5.72;5.32;;;;;;;;;;5059898;28;20425;-78
2023/06/09 03:16:03;;;;;;;5.97;5.57;;;;;;;;;;5070297;28;20384;-79
2023/06/09 03:18:28;;;;;;;6.53;6.05;;;;;;;;;;5058686;28;20772;-80
2023/06/09 03:20:55;;;;;;;6.30;5.90;;;;;;;;;;5071151;28;20388;-80
2023/06/09 03:23:23;;;;;;;6.53;6.00;;;;;;;;;;5074574;28;20836;-80
2023/06/09 03:25:51;;;;;;;6.07;5.57;;;;;;;;;;5074309;28;20888;-80
2023/06/09 03:28:17;;;;;;;6.15;5.72;;;;;;;;;;5074291;28;20449;-80
2023/06/09 03:30:43;;;;;;;6.23;5.83;;;;;;;;;;5056202;28;20422;-81
2023/06/09 03:33:11;;;;;;;6.40;6.00;;;;;;;;;;5054381;28;20394;-80
2023/06/09 03:35:37;;;;;;;6.47;5.97;;;;;;;;;;5068422;28;20431;-80
2023/06/09 03:38:03;;;;;;;5.93;5.53;;;;;;;;;;5066983;28;20424;-80
2023/06/09 03:40:29;;;;;;;6.20;5.70;;;;;;;;;;5067102;28;20367;-80
2023/06/09 03:42:55;;;;;;;5.70;5.30;;;;;;;;;;5069873;28;20378;-81
2023/06/09 03:45:21;;;;;;;6.10;5.65;;;;;;;;;;5057466;28;20382;-79
2023/06/09 03:47:47;;;;;;;6.30;5.90;;;;;;;;;;5072885;28;20411;-81
2023/06/09 03:50:13;;;;;;;6.25;5.82;;;;;;;;;;5059499;28;20382;-80
2023/06/09 03:52:39;;;;;;;6.00;5.60;;;;;;;;;;5061113;28;20891;-81
2023/06/09 03:55:06;;;;;;;6.10;5.72;;;;;;;;;;5057572;28;20457;-79
2023/06/09 03:57:32;;;;;;;6.22;5.82;;;;;;;;;;5058979;28;20379;-78
2023/06/09 03:59:58;;;;;;;6.65;6.22;;;;;;;;;;5045191;28;20759;-79
2023/06/09 04:02:24;;;;;;;6.32;5.88;;;;;;;;;;5055942;28;20390;-79
2023/06/09 04:04:51;;;;;;;5.80;5.40;;;;;;;;;;5063353;28;20403;-78
2023/06/09 04:07:17;;;;;;;7.17;6.57;;;;;;;;;;5060266;28;20413;-80
2023/06/09 04:09:43;;;;;;;6.53;6.13;;;;;;;;;;5063900;28;20407;-79
2023/06/09 04:12:09;;;;;;;7.15;6.55;;;;;;;;;;5060474;28;20420;-80
2023/06/09 04:14:35;;;;;;;6.55;5.95;;;;;;;;;;5071666;28;20424;-80
2023/06/09 04:17:02;;;;;;;6.65;6.05;;;;;;;;;;5061541;28;20378;-80
2023/06/09 04:19:28;;;;;;;6.17;5.77;;;;;;;;;;5061895;28;20396;-80
2023/06/09 04:21:54;;;;;;;6.45;6.05;;;;;;;;;;5061196;28;20389;-80
2023/06/09 04:24:20;;;;;;;6.70;6.20;;;;;;;;;;5059730;28;20416;-80
2023/06/09 04:26:47;;;;;;;6.83;6.13;;;;;;;;;;5070382;28;20496;-80
2023/06/09 04:29:15;;;;;;;6.35;5.90;;;;;;;;;;5073750;28;20411;-80
2023/06/09 04:31:43;;;;;;;6.80;6.30;;;;;;;;;;5040886;28;20886;-80
2023/06/09 04:34:10;;;;;;;6.37;5.87;;;;;;;;;;5064250;28;20467;-80
2023/06/09 04:36:40;;;;;;;6.82;6.32;;;;;;;;;;5032434;28;20934;-81
2023/06/09 04:39:11;;;;;;;7.00;6.40;;;;;;;;;;5028620;28;20391;-81
2023/06/09 04:41:37;;;;;;;6.45;5.95;;;;;;;;;;5030780;28;20398;-81
2023/06/09 04:44:05;;;;;;;6.63;6.13;;;;;;;;;;5016888;28;20454;-80
2023/06/09 04:46:37;;;;;;;6.53;6.03;;;;;;;;;;5024394;28;20434;-80
2023/06/09 04:49:08;;;;;;;6.22;5.72;;;;;;;;;;5024993;28;20375;-81
2023/06/09 04:51:41;;;;;;;6.60;6.20;;;;;;;;;;5020910;28;20383;-80
2023/06/09 04:54:07;;;;;;;6.07;5.68;;;;;;;;;;5027655;28;20403;-80
2023/06/09 04:56:33;;;;;;;6.75;6.28;;;;;;;;;;5029729;28;20418;-80
2023/06/09 04:59:00;;;;;;;6.78;6.25;;;;;;;;;;5023977;28;20389;-80
2023/06/09 05:01:26;;;;;;;6.60;6.15;;;;;;;;;;5027178;28;20410;-80
2023/06/09 05:03:52;;;;;;;6.70;6.20;;;;;;;;;;5019507;28;20805;-80
2023/06/09 05:06:18;;;;;;;6.05;5.65;;;;;;;;;;5026912;28;20453;-80
2023/06/09 05:08:44;;;;;;;6.70;6.30;;;;;;;;;;5022636;28;20389;-80
2023/06/09 05:11:10;;;;;;;6.97;6.50;;;;;;;;;;5015486;28;20403;-80
2023/06/09 05:13:36;;;;;;;6.57;6.15;;;;;;;;;;5016531;28;20380;-80
2023/06/09 05:16:04;;;;;;;7.03;6.53;;;;;;;;;;5031970;28;20379;-80
2023/06/09 05:18:30;;;;;;;7.15;6.65;;;;;;;;;;5030535;28;20864;-80
2023/06/09 05:20:56;;;;;;;25.38;9.02;;;;;;;;;;5031963;28;20437;-80
2023/06/09 05:23:22;;;;;;;7.10;6.43;;;;;;;;;;5032161;28;20472;-80
2023/06/09 05:25:49;;;;;;;7.22;6.53;;;;;;;;;;5019519;28;20409;-80
2023/06/09 05:28:15;;;;;;;6.60;6.10;;;;;;;;;;5028540;28;20375;-80
2023/06/09 05:30:41;;;;;;;6.50;5.90;;;;;;;;;;5031312;28;20483;-80
2023/06/09 05:33:07;;;;;;;6.70;6.18;;;;;;;;;;5032024;28;20474;-80
2023/06/09 05:35:33;;;;;;;6.80;6.28;;;;;;;;;;5044025;28;20422;-80
2023/06/09 05:37:59;;;;;;;6.50;6.10;;;;;;;;;;5071550;28;20493;-80
2023/06/09 05:40:25;;;;;;;6.40;6.00;;;;;;;;;;5071082;28;20466;-80
2023/06/09 05:42:51;;;;;;;6.97;6.40;;;;;;;;;;5071795;28;20372;-80
2023/06/09 05:45:17;;;;;;;8.80;8.15;;;;;;;;;;5070303;28;20795;-80
2023/06/09 05:47:43;;;;;;;6.83;6.40;;;;;;;;;;5071466;28;20416;-80
2023/06/09 05:50:10;;;;;;;6.88;6.47;;;;;;;;;;5071341;28;20372;-80
2023/06/09 05:52:36;;;;;;;7.30;6.80;;;;;;;;;;5065282;28;20405;-80
2023/06/09 05:55:02;;;;;;;7.20;6.70;;;;;;;;;;5062132;28;20815;-80
2023/06/09 05:57:29;;;;;;;7.23;6.73;;;;;;;;;;5055414;28;20792;-81
2023/06/09 05:59:56;;;;;;;6.97;6.47;;;;;;;;;;5065045;28;20787;-80
2023/06/09 06:02:24;;;;;;;6.43;6.03;;;;;;;;;;5065152;28;21097;-81
2023/06/09 06:04:50;;;;;;;7.25;6.75;;;;;;;;;;5052944;28;20413;-79
2023/06/09 06:07:17;;;;;;;7.27;6.77;;;;;;;;;;5066144;28;20403;-80
2023/06/09 06:09:43;;;;;;;7.63;7.03;;;;;;;;;;5053227;28;20383;-80
2023/06/09 06:12:10;;;;;;;6.95;6.50;;;;;;;;;;5071325;28;20376;-80
2023/06/09 06:14:36;;;;;;;7.43;6.82;;;;;;;;;;5070887;28;20375;-80
2023/06/09 06:17:02;;;;;;;7.32;6.75;;;;;;;;;;5070543;28;20413;-80
2023/06/09 06:19:28;;;;;;;7.20;6.50;;;;;;;;;;5067094;28;20486;-80
2023/06/09 06:21:54;;;;;;;7.38;6.78;;;;;;;;;;5053540;28;20380;-80
2023/06/09 06:24:23;;;;;;;6.20;5.80;;;;;;;;;;5052932;28;20427;-81
2023/06/09 06:26:52;;;;;;;6.57;6.07;;;;;;;;;;5048916;28;20415;-81
2023/06/09 06:29:18;;;;;;;7.57;7.03;;;;;;;;;;5067191;28;20881;-80
2023/06/09 06:31:44;;;;;;;6.85;6.32;;;;;;;;;;5053632;28;20394;-80
2023/06/09 06:34:10;;;;;;;7.35;6.75;;;;;;;;;;5051214;28;20788;-80
2023/06/09 06:36:37;;;;;;;7.00;6.40;;;;;;;;;;5051708;28;20408;-80
2023/06/09 06:39:06;;;;;;;7.20;6.63;;;;;;;;;;5056084;28;20383;-80
2023/06/09 06:41:32;;;;;;;7.80;7.20;;;;;;;;;;5062217;28;20419;-80
2023/06/09 06:43:58;;;;;;;7.07;6.57;;;;;;;;;;5070457;28;20477;-79
2023/06/09 06:46:24;;;;;;;7.30;6.70;;;;;;;;;;5068568;28;20403;-81
2023/06/09 06:48:50;;;;;;;7.88;7.28;;;;;;;;;;5069756;28;20363;-81
2023/06/09 06:51:17;;;;;;;6.93;6.33;;;;;;;;;;5070074;28;20380;-79
2023/06/09 06:53:43;;;;;;;7.30;6.80;;;;;;;;;;5068161;28;20437;-80
2023/06/09 06:56:09;;;;;;;7.38;6.80;;;;;;;;;;5067205;28;20775;-79
2023/06/09 06:58:35;;;;;;;7.15;6.57;;;;;;;;;;5071099;28;20441;-80
2023/06/09 07:01:02;;;;;;;7.05;6.50;;;;;;;;;;5070979;28;20948;-80
2023/06/09 07:03:29;;;;;;;6.63;6.13;;;;;;;;;;5065749;28;20400;-78
2023/06/09 07:05:56;;;;;;;6.65;6.15;;;;;;;;;;5064923;28;20414;-78
2023/06/09 07:08:21;;;;;;;6.68;6.10;;;;;;;;;;5059229;28;20368;-79
2023/06/09 07:10:47;;;;;;;6.68;6.28;;;;;;;;;;5070917;28;20930;-78
2023/06/09 07:13:15;;;;;;;6.78;6.20;;;;;;;;;;5070490;28;20384;-78
2023/06/09 07:15:41;;;;;;;7.00;6.50;;;;;;;;;;5070778;28;20375;-79
2023/06/09 07:18:07;;;;;;;6.80;6.30;;;;;;;;;;5070017;28;20804;-79
2023/06/09 07:20:33;;;;;;;5.97;5.57;;;;;;;;;;5070840;28;20852;-79
2023/06/09 07:22:59;;;;;;;6.80;6.20;;;;;;;;;;5070441;28;20415;-79
2023/06/09 07:25:25;;;;;;;7.38;6.88;;;;;;;;;;5070707;28;20375;-79
2023/06/09 07:27:51;;;;;;;6.40;6.00;;;;;;;;;;5070523;28;20404;-79
2023/06/09 07:30:18;;;;;;;6.90;6.30;;;;;;;;;;5070742;28;20380;-79
2023/06/09 07:32:44;;;;;;;6.90;6.50;;;;;;;;;;5070692;28;20429;-79
2023/06/09 07:35:13;;;;;;;6.78;6.18;;;;;;;;;;5069580;28;20456;-79
2023/06/09 07:37:43;;;;;;;6.80;6.40;;;;;;;;;;5070182;28;20384;-80
2023/06/09 07:40:09;;;;;;;6.38;5.88;;;;;;;;;;5070589;28;20380;-80
2023/06/09 07:42:36;;;;;;;6.13;5.70;;;;;;;;;;5070582;28;20398;-80
2023/06/09 07:45:02;;;;;;;6.03;5.53;;;;;;;;;;5069466;28;20848;-79
2023/06/09 07:47:28;;;;;;;5.63;5.22;;;;;;;;;;5068936;28;20442;-86
2023/06/09 07:49:54;;;;;;;5.80;5.30;;;;;;;;;;5070008;28;20384;-86
2023/06/09 07:52:20;;;;;;;6.45;5.43;;;;;;;;;;5068874;28;20865;-84
2023/06/09 07:54:46;;;;;;;6.87;6.30;;;;;;;;;;5052180;28;20402;-85
2023/06/09 07:57:12;;;;;;;5.95;5.55;;;;;;;;;;5070458;28;20383;-86
2023/06/09 07:59:40;;;;;;;5.75;5.35;;;;;;;;;;5070450;28;20429;-85
2023/06/09 08:02:06;;;;;;;6.17;5.23;;;;;;;;;;5070585;28;20506;-85
2023/06/09 08:04:32;;;;;;;6.23;5.20;;;;;;;;;;5070002;28;20908;-86
2023/06/09 08:07:01;;;;;;;5.50;5.00;;;;;;;;;;5070013;28;20438;-85
2023/06/09 08:09:27;;;;;;;5.60;5.20;;;;;;;;;;5073401;28;20745;-85
2023/06/09 08:11:53;;;;;;;6.10;5.60;;;;;;;;;;5074016;28;20380;-85
2023/06/09 08:14:19;;;;;;;6.47;5.97;;;;;;;;;;5073391;28;20372;-85
2023/06/09 08:16:46;;;;;;;5.90;5.40;;;;;;;;;;5073751;28;20403;-84
2023/06/09 08:19:12;;;;;;;5.47;5.05;;;;;;;;;;5073827;28;20395;-85
2023/06/09 08:21:44;;;;;;;6.40;5.90;;;;;;;;;;5073845;28;20916;-86
2023/06/09 08:24:11;;;;;;;5.95;5.53;;;;;;;;;;5073462;28;20383;-86
2023/06/09 08:26:38;;;;;;;5.18;4.75;;;;;;;;;;5055556;28;20399;-86
2023/06/09 08:29:04;;;;;;;5.73;5.13;;;;;;;;;;5073743;28;20384;-86
2023/06/09 08:31:31;;;;;;;6.47;5.60;;;;;;;;;;5073741;28;20462;-87
2023/06/09 08:33:57;;;;;;;5.38;4.90;;;;;;;;;;5055207;28;20396;-86
2023/06/09 08:36:24;;;;;;;5.57;5.07;;;;;;;;;;5070686;28;20407;-85
2023/06/09 08:38:50;;;;;;;5.50;5.00;;;;;;;;;;5073359;28;20380;-86
2023/06/09 08:41:16;;;;;;;5.63;5.18;;;;;;;;;;5073517;28;20384;-87
2023/06/09 08:43:42;;;;;;;5.37;4.80;;;;;;;;;;5073059;28;20376;-86
2023/06/09 08:46:12;;;;;;;5.30;4.90;;;;;;;;;;5073245;28;20414;-87
2023/06/09 08:48:39;;;;;;;4.72;4.43;;;;;;;;;;5073254;28;20387;-86
2023/06/09 08:51:05;;;;;;;7.10;5.10;;;;;;;;;;5073202;28;20375;-86
2023/06/09 08:53:31;;;;;;;5.70;5.13;;;;;;;;;;5072681;28;20918;-88
2023/06/09 08:55:59;;;;;;;5.20;4.80;;;;;;;;;;5072275;28;20392;-87
2023/06/09 08:58:25;;;;;;;5.60;5.00;;;;;;;;;;5073092;28;20412;-87
2023/06/09 09:00:52;;;;;;;4.88;4.43;;;;;;;;;;5072871;28;20388;-87
2023/06/09 09:03:18;;;;;;;5.57;5.18;;;;;;;;;;5072581;28;20384;-86
2023/06/09 09:05:45;;;;;;;5.20;4.70;;;;;;;;;;5072702;28;20909;-87
2023/06/09 09:08:11;;;;;;;5.25;4.75;;;;;;;;;;5073008;28;20376;-84
2023/06/09 09:10:38;;;;;;;4.93;4.53;;;;;;;;;;5072848;28;20522;-87
2023/06/09 09:13:07;;;;;;;5.47;4.57;;;;;;;;;;5072399;28;20513;-86
2023/06/09 09:15:33;;;;;;;6.03;4.40;;;;;;;;;;5064558;28;20372;-86
2023/06/09 09:17:59;;;;;;;4.47;4.07;;;;;;;;;;5072540;28;20402;-86
2023/06/09 09:20:32;;;;;;;4.82;4.43;;;;;;;;;;5072371;28;20469;-86
2023/06/09 09:22:58;;;;;;;4.55;4.15;;;;;;;;;;5072073;28;20387;-86
2023/06/09 09:25:25;;;;;;;5.10;4.63;;;;;;;;;;5072510;28;20408;-87
2023/06/09 09:27:59;;;;;;;4.55;4.25;;;;;;;;;;5072040;28;20491;-87
2023/06/09 09:30:44;;;;;;;4.33;3.80;;;;;;;;;;5072612;28;20776;-86
2023/06/09 09:33:11;;;;;;;4.15;3.85;;;;;;;;;;5072162;28;20375;-86
2023/06/09 09:35:38;;;;;;;4.35;3.95;;;;;;;;;;5072124;28;20792;-84
2023/06/09 09:38:04;;;;;;;4.57;4.00;;;;;;;;;;5072364;28;20457;-86
2023/06/09 09:40:30;;;;;;;3.92;3.63;;;;;;;;;;5072218;28;20841;-87
2023/06/09 09:43:01;;;;;;;4.80;3.90;;;;;;;;;;5071829;28;20399;-86
2023/06/09 09:45:29;;;;;;;4.10;3.70;;;;;;;;;;5053968;28;20391;-87
2023/06/09 09:48:08;;;;;;;5.13;3.80;;;;;;;;;;5072092;28;20408;-85
2023/06/09 09:50:36;;;;;;;3.90;3.60;;;;;;;;;;5072018;28;20418;-85
2023/06/09 09:53:03;;;;;;;3.63;3.33;;;;;;;;;;5071759;28;20368;-86
2023/06/09 09:55:29;;;;;;;3.92;3.60;;;;;;;;;;5071888;28;20379;-86
2023/06/09 09:57:56;;;;;;;4.15;3.58;;;;;;;;;;5054042;28;20392;-85
2023/06/09 10:00:23;;;;;;;3.90;3.60;;;;;;;;;;5071976;28;20416;-84
2023/06/09 10:02:51;;;;;;;4.32;3.92;;;;;;;;;;5071463;28;20429;-85
2023/06/09 10:05:18;;;;;;;3.88;3.58;;;;;;;;;;5071766;28;20382;-85
2023/06/09 10:07:48;;;;;;;3.90;3.60;;;;;;;;;;5071508;28;20415;-86
2023/06/09 10:10:14;;;;;;;3.50;3.30;;;;;;;;;;5071462;28;20395;-87
2023/06/09 10:12:41;;;;;;;3.67;3.38;;;;;;;;;;5071455;28;20830;-85
2023/06/09 10:15:10;;;;;;;4.07;3.75;;;;;;;;;;5053523;28;20486;-87
2023/06/09 10:17:37;;;;;;;3.83;3.53;;;;;;;;;;5071494;28;20384;-85
2023/06/09 10:20:09;;;;;;;3.60;3.40;;;;;;;;;;5053685;28;20398;-85
2023/06/09 10:22:36;;;;;;;3.95;3.65;;;;;;;;;;5071271;28;20387;-84
2023/06/09 10:25:03;;;;;;;3.72;3.50;;;;;;;;;;5071329;28;20873;-85
2023/06/09 10:27:30;;;;;;;4.03;3.75;;;;;;;;;;5071314;28;20399;-86
2023/06/09 10:29:56;;;;;;;3.83;3.53;;;;;;;;;;5070841;28;20372;-86
2023/06/09 10:32:24;;;;;;;4.88;3.75;;;;;;;;;;5070773;28;20765;-86
2023/06/09 10:34:52;;;;;;;5.82;4.00;;;;;;;;;;5070736;28;20376;-85
2023/06/09 10:37:31;;;;;;;3.65;3.45;;;;;;;;;;5071196;28;20479;-85
2023/06/09 10:40:05;;;;;;;3.53;3.22;;;;;;;;;;5071103;28;20933;-85
2023/06/09 10:42:44;;;;;;;3.90;3.50;;;;;;;;;;5052416;28;20391;-86
2023/06/09 10:45:14;;;;;;;3.80;3.40;;;;;;;;;;5071127;28;20372;-85
2023/06/09 10:47:43;;;;;;;4.07;3.33;;;;;;;;;;5056961;28;20413;-87
2023/06/09 10:50:30;;;;;;;3.50;3.30;;;;;;;;;;5071183;28;20427;-85
2023/06/09 10:53:00;;;;;;;4.00;3.63;;;;;;;;;;5070358;28;20376;-84
2023/06/09 10:55:30;;;;;;;4.78;3.40;;;;;;;;;;5052836;28;20391;-86
2023/06/09 10:57:57;;;;;;;3.33;3.03;;;;;;;;;;5071464;28;20841;-84
2023/06/09 11:00:23;;;;;;;3.13;2.92;;;;;;;;;;5053201;28;20456;-86
2023/06/09 11:03:14;;;;;;;3.50;3.17;;;;;;;;;;5052668;28;20849;-85
2023/06/09 11:05:45;;;;;;;3.20;3.00;;;;;;;;;;5070747;28;20745;-84
2023/06/09 11:08:11;;;;;;;4.32;3.10;;;;;;;;;;5053155;28;20398;-87
2023/06/09 11:10:37;;;;;;;3.40;3.10;;;;;;;;;;5070991;28;20384;-84
2023/06/09 11:13:23;;;;;;;3.58;3.38;;;;;;;;;;5070708;28;20407;-85
2023/06/09 11:16:02;;;;;;;3.30;3.10;;;;;;;;;;5064944;28;20379;-84
2023/06/09 11:18:28;;;;;;;3.20;3.00;;;;;;;;;;5071092;28;20380;-85
2023/06/09 11:21:07;;;;;;;3.30;3.00;;;;;;;;;;5052949;28;20387;-86
2023/06/09 11:23:34;;;;;;;3.17;2.97;;;;;;;;;;5070578;28;20384;-85
2023/06/09 11:26:00;;;;;;;3.03;2.83;;;;;;;;;;5070778;28;20399;-86
2023/06/09 11:28:26;;;;;;;3.30;3.10;;;;;;;;;;5070754;28;20710;-85
2023/06/09 11:31:06;;;;;;;3.30;3.10;;;;;;;;;;5052928;28;20467;-85
2023/06/09 11:33:45;;;;;;;3.40;3.20;;;;;;;;;;5070058;28;20966;-85
2023/06/09 11:36:21;;;;;;;3.15;2.95;;;;;;;;;;5070564;28;20764;-86
2023/06/09 11:38:48;;;;;;;3.40;3.20;;;;;;;;;;5070744;28;20383;-85
2023/06/09 11:41:15;;;;;;;3.15;2.85;;;;;;;;;;5070766;28;20402;-87
2023/06/09 11:43:48;;;;;;;3.30;3.10;;;;;;;;;;5073656;28;20412;-85
2023/06/09 11:46:15;;;;;;;3.10;2.90;;;;;;;;;;5074460;28;20407;-86
2023/06/09 11:48:56;;;;;;;3.53;3.23;;;;;;;;;;5074403;28;20724;-86
2023/06/09 11:51:22;;;;;;;3.60;3.20;;;;;;;;;;5074572;28;20410;-85
2023/06/09 11:53:48;;;;;;;3.33;3.13;;;;;;;;;;5056127;28;20419;-86
2023/06/09 11:56:14;;;;;;;3.92;3.17;;;;;;;;;;5074229;28;20391;-86
2023/06/09 11:58:41;;;;;;;3.38;3.17;;;;;;;;;;5074348;28;20444;-86
2023/06/09 12:01:07;;;;;;;3.27;3.07;;;;;;;;;;5074083;28;20803;-86
2023/06/09 12:03:36;;;;;;;3.25;2.95;;;;;;;;;;5055998;28;20802;-86
2023/06/09 12:06:02;;;;;;;3.50;3.30;;;;;;;;;;5073938;28;20414;-86
2023/06/09 12:08:28;;;;;;;3.40;3.10;;;;;;;;;;5074151;28;20958;-85
2023/06/09 12:10:54;;;;;;;3.13;2.90;;;;;;;;;;5073971;28;20463;-85
2023/06/09 12:13:20;;;;;;;3.40;3.20;;;;;;;;;;5056023;28;20372;-85
2023/06/09 12:15:53;;;;;;;3.17;2.90;;;;;;;;;;5055989;28;20391;-87
2023/06/09 12:18:20;;;;;;;3.38;3.17;;;;;;;;;;5074000;28;20837;-86
2023/06/09 12:20:46;;;;;;;2.88;2.67;;;;;;;;;;5055961;28;20372;-85
2023/06/09 12:23:14;;;;;;;3.20;3.00;;;;;;;;;;5073471;28;20380;-86
2023/06/09 12:25:48;;;;;;;3.30;3.10;;;;;;;;;;5073787;28;20380;-86
2023/06/09 12:28:14;;;;;;;3.25;3.03;;;;;;;;;;5073594;28;20399;-87
2023/06/09 12:30:47;;;;;;;3.47;3.17;;;;;;;;;;5074069;28;20368;-86
2023/06/09 12:33:14;;;;;;;3.40;3.08;;;;;;;;;;5073501;28;20888;-87
2023/06/09 12:35:44;;;;;;;3.17;2.92;;;;;;;;;;5072954;28;20885;-86
2023/06/09 12:38:10;;;;;;;4.00;3.20;;;;;;;;;;5073631;28;20872;-86
2023/06/09 12:40:52;;;;;;;3.22;3.00;;;;;;;;;;5073182;28;20379;-86
2023/06/09 12:43:28;;;;;;;3.20;3.00;;;;;;;;;;5073225;28;20383;-86
2023/06/09 12:45:55;;;;;;;3.27;3.00;;;;;;;;;;5072794;28;20861;-86
2023/06/09 12:48:21;;;;;;;3.20;3.00;;;;;;;;;;5072889;28;20387;-84
2023/06/09 12:50:47;;;;;;;3.42;3.13;;;;;;;;;;5073263;28;20386;-85
2023/06/09 12:53:13;;;;;;;3.10;2.90;;;;;;;;;;5072964;28;20380;-85
2023/06/09 12:55:40;;;;;;;3.50;3.20;;;;;;;;;;5072665;28;20372;-87
2023/06/09 12:58:07;;;;;;;3.40;3.20;;;;;;;;;;5055517;28;20396;-86
2023/06/09 13:00:33;;;;;;;3.20;2.90;;;;;;;;;;5073104;28;20908;-89
2023/06/09 13:02:59;;;;;;;3.20;3.00;;;;;;;;;;5053603;28;20423;-88
2023/06/09 13:05:30;;;;;;;3.45;3.22;;;;;;;;;;5056779;28;20380;-87
2023/06/09 13:07:57;;;;;;;3.30;3.10;;;;;;;;;;5072909;28;20465;-86
2023/06/09 13:10:23;;;;;;;3.60;3.40;;;;;;;;;;5072313;28;20415;-86
2023/06/09 13:12:50;;;;;;;3.50;3.20;;;;;;;;;;5069903;28;20391;-85
2023/06/09 13:15:17;;;;;;;3.45;3.15;;;;;;;;;;5072236;28;20425;-87
2023/06/09 13:17:43;;;;;;;3.60;3.33;;;;;;;;;;5065812;28;20417;-85
2023/06/09 13:20:09;;;;;;;3.47;3.17;;;;;;;;;;5069278;28;20426;-85
2023/06/09 13:22:35;;;;;;;3.35;3.05;;;;;;;;;;5063921;28;20448;-86
2023/06/09 13:25:01;;;;;;;3.20;3.00;;;;;;;;;;5060465;28;20376;-86
2023/06/09 13:27:27;;;;;;;3.27;2.97;;;;;;;;;;5062971;28;20406;-87
2023/06/09 13:29:53;;;;;;;3.33;3.10;;;;;;;;;;5065256;28;20566;-86
2023/06/09 13:32:19;;;;;;;3.35;3.15;;;;;;;;;;5064195;28;20429;-86
2023/06/09 13:34:46;;;;;;;3.35;3.08;;;;;;;;;;5070688;28;20425;-85
2023/06/09 13:37:12;;;;;;;3.00;2.80;;;;;;;;;;5071091;28;20743;-85
2023/06/09 13:39:38;;;;;;;3.30;3.00;;;;;;;;;;5071054;28;20384;-86
2023/06/09 13:42:04;;;;;;;3.30;3.00;;;;;;;;;;5072143;28;20444;-85
2023/06/09 13:44:30;;;;;;;3.15;2.95;;;;;;;;;;5071900;28;20376;-85
2023/06/09 13:46:56;;;;;;;3.60;3.30;;;;;;;;;;5071738;28;20400;-86
2023/06/09 13:49:22;;;;;;;3.47;3.15;;;;;;;;;;5065511;28;20462;-85
2023/06/09 13:51:48;;;;;;;3.65;3.35;;;;;;;;;;5061149;28;20374;-86
2023/06/09 13:54:14;;;;;;;3.22;3.03;;;;;;;;;;5068901;28;20399;-87
2023/06/09 13:56:40;;;;;;;3.10;2.88;;;;;;;;;;5062382;28;20743;-87
2023/06/09 13:59:06;;;;;;;3.60;3.30;;;;;;;;;;5066568;28;20383;-87
2023/06/09 14:01:33;;;;;;;3.30;3.00;;;;;;;;;;5070621;28;20515;-86
2023/06/09 14:03:59;;;;;;;3.30;3.10;;;;;;;;;;5067522;28;20393;-87
2023/06/09 14:06:26;;;;;;;3.30;3.00;;;;;;;;;;5069951;28;20407;-87
2023/06/09 14:08:52;;;;;;;3.50;3.20;;;;;;;;;;5071403;28;20383;-84
2023/06/09 14:11:19;;;;;;;3.42;3.13;;;;;;;;;;5071474;28;20467;-87
2023/06/09 14:13:45;;;;;;;3.10;2.90;;;;;;;;;;5071198;28;20387;-85
2023/06/09 14:16:11;;;;;;;3.20;3.00;;;;;;;;;;5071379;28;20415;-84
2023/06/09 14:18:37;;;;;;;3.35;3.10;;;;;;;;;;5071086;28;20404;-85
2023/06/09 14:21:04;;;;;;;3.50;2.80;;;;;;;;;;5053343;28;20471;-87
2023/06/09 14:23:30;;;;;;;3.30;3.10;;;;;;;;;;5053044;28;20402;-85
2023/06/09 14:25:56;;;;;;;3.55;3.20;;;;;;;;;;5071121;28;20419;-86
2023/06/09 14:28:22;;;;;;;3.53;3.22;;;;;;;;;;5070834;28;20380;-86
2023/06/09 14:30:48;;;;;;;3.00;2.80;;;;;;;;;;5071270;28;20372;-86
2023/06/09 14:33:14;;;;;;;3.22;3.00;;;;;;;;;;5071114;28;20376;-86
2023/06/09 14:35:43;;;;;;;3.95;3.25;;;;;;;;;;5070743;28;20735;-86
2023/06/09 14:38:09;;;;;;;3.35;3.05;;;;;;;;;;5070960;28;20372;-86
2023/06/09 14:40:36;;;;;;;3.40;3.20;;;;;;;;;;5071014;28;20383;-85
2023/06/09 14:43:02;;;;;;;3.40;3.10;;;;;;;;;;5070845;28;20372;-85
2023/06/09 14:45:28;;;;;;;3.50;3.30;;;;;;;;;;5070025;28;20745;-86